createdAt,value
2023-01-12T00:13:20.990Z,0.00
2023-01-12T00:28:21.666Z,0.00
2023-01-12T00:43:23.019Z,0.00
2023-01-12T00:58:25.441Z,0.00
2023-01-12T01:13:25.994Z,0.00
2023-01-12T01:28:26.148Z,0.00
2023-01-12T01:43:26.732Z,0.00
2023-01-12T01:58:26.694Z,0.00
2023-01-12T02:13:27.385Z,0.00
2023-01-12T02:28:28.549Z,0.00
2023-01-12T02:43:29.197Z,0.00
2023-01-12T02:58:29.867Z,0.00
2023-01-12T03:13:30.551Z,0.00
2023-01-12T03:28:30.759Z,0.00
2023-01-12T03:43:31.360Z,0.00
2023-01-12T03:58:31.510Z,0.00
2023-01-12T04:13:32.771Z,0.00
2023-01-12T04:28:33.455Z,0.00
2023-01-12T04:43:33.641Z,0.00
2023-01-12T04:58:33.865Z,0.00
2023-01-12T05:13:34.023Z,0.00
2023-01-12T05:28:34.317Z,0.00
2023-01-12T05:43:34.907Z,0.00
2023-01-12T05:58:35.738Z,0.00
2023-01-12T06:13:36.341Z,0.00
2023-01-12T06:28:37.661Z,0.00
2023-01-12T06:43:38.367Z,0.00
2023-01-12T06:58:38.980Z,0.00
2023-01-12T07:13:39.285Z,5.62
2023-01-12T07:28:39.518Z,11.25
2023-01-12T07:43:39.797Z,16.88
2023-01-12T07:58:40.052Z,33.75
2023-01-12T08:13:40.223Z,50.62
2023-01-12T08:28:40.499Z,67.50
2023-01-12T08:43:40.461Z,56.25
2023-01-12T08:58:40.736Z,84.38
2023-01-12T09:13:40.970Z,129.38
2023-01-12T09:28:41.138Z,67.50
2023-01-12T09:43:41.388Z,196.88
2023-01-12T09:58:42.827Z,163.12
2023-01-12T10:13:42.820Z,320.62
2023-01-12T10:28:44.377Z,163.12
2023-01-12T10:43:44.347Z,90.00
2023-01-12T10:58:46.488Z,129.38
2023-01-12T11:13:46.899Z,84.38
2023-01-12T11:28:47.088Z,78.75
2023-01-12T11:43:47.867Z,106.88
2023-01-12T11:58:48.056Z,101.25
2023-01-12T12:13:48.291Z,112.50
2023-01-12T12:28:48.474Z,151.88
2023-01-12T12:43:48.696Z,78.75
2023-01-12T12:58:49.022Z,78.75
2023-01-12T13:13:49.094Z,67.50
2023-01-12T13:28:49.709Z,73.12
2023-01-12T13:43:50.400Z,50.62
2023-01-12T13:58:50.532Z,39.38
2023-01-12T14:13:50.699Z,16.88
2023-01-12T14:28:50.949Z,22.50
2023-01-12T14:43:51.120Z,11.25
2023-01-12T14:58:51.413Z,5.62
2023-01-12T15:13:51.380Z,0.00
2023-01-12T15:28:51.672Z,0.00
2023-01-12T15:43:51.824Z,0.00
2023-01-12T15:58:52.194Z,0.00
2023-01-12T16:13:52.359Z,0.00
2023-01-12T16:28:53.150Z,0.00
2023-01-12T16:43:53.282Z,0.00
2023-01-12T16:58:53.725Z,0.00
2023-01-12T17:13:54.366Z,0.00
2023-01-12T17:28:55.109Z,0.00
2023-01-12T17:43:56.571Z,0.00
2023-01-12T17:58:56.997Z,0.00
2023-01-12T18:13:57.121Z,0.00
2023-01-12T18:28:57.771Z,0.00
2023-01-12T18:43:58.486Z,0.00
2023-01-12T18:58:58.608Z,0.00
2023-01-12T19:13:58.916Z,0.00
2023-01-12T19:28:59.968Z,0.00
2023-01-12T19:44:01.102Z,0.00
2023-01-12T19:59:02.231Z,0.00
2023-01-12T20:14:02.535Z,0.00
2023-01-12T20:29:03.062Z,0.00
2023-01-12T20:44:03.364Z,0.00
2023-01-12T20:59:04.093Z,0.00
2023-01-12T21:14:05.183Z,0.00
2023-01-12T21:29:05.641Z,0.00
2023-01-12T21:44:06.167Z,0.00
2023-01-12T21:59:07.433Z,0.00
2023-01-12T22:14:09.285Z,0.00
2023-01-12T22:29:10.910Z,0.00
2023-01-12T22:44:13.061Z,0.00
2023-01-12T22:59:14.150Z,0.00
2023-01-12T23:14:16.091Z,0.00
2023-01-12T23:29:16.763Z,0.00
2023-01-12T23:44:17.138Z,0.00
2023-01-12T23:59:18.378Z,0.00
